High Challenge — D5LX9 — position and weather

sailwx.info

Track history (hours):
 
Tides and Currents Weather Stations Pressure Air Temp Water Temp Dewpoint Dewpoint Depression Visibility Wind Speed Wind Dir Waves Ship Positions

High Challenge

Last reported at 2018-Jan-09 10:50 UTC. Time now 2018-Jan-19 07:17 UTC.
Position N 49°49' W 003°25'.
Warning: this ship's position is 9 days out of date.

Length 183 m; draft 10.8 m.

Type: Ship. MMSI: 636017622.

Date/timePositionNaut miles runAvg speedWind from/ knotsBaromVisibWave heightAir tempDewpointWater temp
2018-Jan-09 10:50N 49°49' W 003°25'513.5
2018-Jan-09 10:29N 49°51' W 003°19'913.8
2018-Jan-09 09:49N 49°56' W 003°07'414.2
2018-Jan-09 09:30N 49°58' W 003°01'714.7
2018-Jan-09 09:00N 50°01' W 002°50'815.2
2018-Jan-09 08:30N 50°03' W 002°39'4316.4
2018-Jan-09 05:54N 50°14' W 001°34'616.0
2018-Jan-09 05:30N 50°17' W 001°25'815.6
2018-Jan-09 05:00N 50°19' W 001°13'1214.8
2018-Jan-09 04:12N 50°22' W 000°55'1113.5
2018-Jan-09 03:24N 50°25' W 000°39'1113.0
2018-Jan-09 02:32N 50°29' W 000°22'013.2
2018-Jan-09 02:30N 50°29' W 000°22'713.0
2018-Jan-09 02:00N 50°30' W 000°12'613.1
2018-Jan-09 01:30N 50°32' W 000°02'713.1
2018-Jan-09 01:00N 50°34' E 000°08'713.3
2018-Jan-09 00:30N 50°36' E 000°18'713.9
2018-Jan-09 00:00N 50°38' E 000°29'714.5
2018-Jan-08 23:30N 50°41' E 000°39'815.2
2018-Jan-08 23:00N 50°45' E 000°49'815.7
2018-Jan-08 22:30N 50°50' E 000°59'815.8
2018-Jan-08 22:00N 50°55' E 001°09'3366.7
2018-Jan-08 21:30N 51°17' E 001°47'1835.4
2018-Jan-08 21:00N 51°04' E 001°27'713.4
2018-Jan-08 20:30N 51°08' E 001°36'612.7
2018-Jan-08 20:00N 51°12' E 001°44'612.4
2018-Jan-08 19:30N 51°18' E 001°48'612.0
2018-Jan-08 19:00N 51°23' E 001°52'611.3
2018-Jan-08 18:30N 51°26' E 001°60'713.3
2018-Jan-08 18:00N 51°22' E 002°09'612.4
2018-Jan-08 17:30N 51°20' E 002°18'612.0
2018-Jan-08 17:00N 51°22' E 002°27'612.0
2018-Jan-08 16:30N 51°22' E 002°37'610.7
2018-Jan-08 16:00N 51°22' E 002°46'510.0
2018-Jan-08 15:30N 51°22' E 002°53'612.8
2018-Jan-08 15:00N 51°24' E 003°03'612.8
2018-Jan-08 14:30N 51°24' E 003°13'612.6
2018-Jan-08 14:00N 51°25' E 003°24'611.2
2018-Jan-08 13:30N 51°26' E 003°33'510.1
2018-Jan-08 13:00N 51°26' E 003°40'612.1
2018-Jan-08 12:30N 51°22' E 003°46'713.4
2018-Jan-08 12:00N 51°23' E 003°57'3 6.8
2018-Jan-08 11:30N 51°24' E 004°02'510.7
2018-Jan-08 11:00N 51°24' E 004°11'5 9.3
2018-Jan-08 10:30N 51°21' E 004°16'1 1.2
2018-Jan-08 10:00N 51°21' E 004°17'0 0.0
2018-Jan-08 09:30N 51°21' E 004°17'0 0.6
2018-Jan-08 09:00N 51°21' E 004°18'2 3.3
2018-Jan-08 08:30N 51°19' E 004°19'2 4.0
2018-Jan-08 07:58N 51°17' E 004°20'0 0.1
2018-Jan-08 05:43N 51°17' E 004°20'0 0.0
2018-Jan-08 05:22N 51°17' E 004°20'0 0.0
2018-Jan-08 04:58N 51°17' E 004°20'0 0.0
2018-Jan-08 04:25N 51°17' E 004°20'0 0.0
2018-Jan-08 03:55N 51°17' E 004°20'0 0.0
2018-Jan-08 03:28N 51°17' E 004°20'0 0.0
2018-Jan-08 02:58N 51°17' E 004°20'0 0.0
2018-Jan-08 02:25N 51°17' E 004°20'0 0.0
2018-Jan-08 01:58N 51°17' E 004°20'0 0.0
2018-Jan-08 01:28N 51°17' E 004°20'0 0.0
2018-Jan-08 00:58N 51°17' E 004°20'0 0.0
2018-Jan-08 00:22N 51°17' E 004°20'0 0.0
2018-Jan-07 23:55N 51°17' E 004°20'0 0.0
2018-Jan-07 23:19N 51°17' E 004°20'0 0.0
2018-Jan-07 22:55N 51°17' E 004°20'0 0.0
2018-Jan-07 22:28N 51°17' E 004°20'0 0.0
2018-Jan-07 21:55N 51°17' E 004°20'0 0.0
2018-Jan-07 21:22N 51°17' E 004°20'0 0.0
2018-Jan-07 20:19N 51°17' E 004°20'0 0.0
2018-Jan-07 19:49N 51°17' E 004°20'0 0.0
2018-Jan-07 19:13N 51°17' E 004°20'0 0.0
2018-Jan-07 18:58N 51°17' E 004°20'0 0.0
2018-Jan-07 18:25N 51°17' E 004°20'0 0.0
2018-Jan-07 17:55N 51°17' E 004°20'0 0.0
2018-Jan-07 17:13N 51°17' E 004°20'0 0.0
2018-Jan-07 16:13N 51°17' E 004°20'0 0.0
2018-Jan-07 15:49N 51°17' E 004°20'0 0.0
2018-Jan-07 15:19N 51°17' E 004°20'0 0.0
2018-Jan-07 14:49N 51°17' E 004°20'0 0.0
2018-Jan-07 14:13N 51°17' E 004°20'0 0.0
2018-Jan-07 13:43N 51°17' E 004°20'0 0.0
2018-Jan-07 13:28N 51°17' E 004°20'0 0.0
2018-Jan-07 12:16N 51°17' E 004°20'0 0.0
2018-Jan-07 11:52N 51°17' E 004°20'0 0.0
2018-Jan-07 11:28N 51°17' E 004°20'0 0.0
2018-Jan-07 10:52N 51°17' E 004°20'0 0.0
2018-Jan-07 10:25N 51°17' E 004°20'0 0.0
2018-Jan-07 09:58N 51°17' E 004°20'0 0.0
2018-Jan-07 08:40N 51°17' E 004°20'0 0.0
2018-Jan-07 08:28N 51°17' E 004°20'0 0.0
2018-Jan-07 07:55N 51°17' E 004°20'0 0.0
2018-Jan-07 07:19N 51°17' E 004°20'0 0.0
2018-Jan-07 06:58N 51°17' E 004°20'0 0.0
2018-Jan-07 06:19N 51°17' E 004°20'0 0.0
2018-Jan-07 05:58N 51°17' E 004°20'0 0.0
2018-Jan-07 05:28N 51°17' E 004°20'0 0.0
2018-Jan-07 04:49N 51°17' E 004°20'0 0.0
2018-Jan-07 04:28N 51°17' E 004°20'0 0.0
2018-Jan-07 03:55N 51°17' E 004°20'0 0.0
2018-Jan-07 03:28N 51°17' E 004°20'0 0.0
2018-Jan-07 02:52N 51°17' E 004°20'0 0.0
2018-Jan-07 02:25N 51°17' E 004°20'0 0.0
2018-Jan-07 01:55N 51°17' E 004°20'0 0.0
2018-Jan-07 01:28N 51°17' E 004°20'0 0.0
2018-Jan-07 00:28N 51°17' E 004°20'0 0.0
2018-Jan-06 23:58N 51°17' E 004°20'0 0.0
2018-Jan-06 23:16N 51°17' E 004°20'0 0.0
2018-Jan-06 22:49N 51°17' E 004°20'0 0.0
2018-Jan-06 22:28N 51°17' E 004°20'0 0.0
2018-Jan-06 21:55N 51°17' E 004°20'0 0.0
2018-Jan-06 21:28N 51°17' E 004°20'0 0.0
2018-Jan-06 20:58N 51°17' E 004°20'0 0.0
2018-Jan-06 20:28N 51°17' E 004°20'0 0.0
2018-Jan-06 19:58N 51°17' E 004°20'0 0.0
2018-Jan-06 19:25N 51°17' E 004°20'0 0.0
2018-Jan-06 18:55N 51°17' E 004°20'0 0.0
2018-Jan-06 18:28N 51°17' E 004°20'0 0.0
2018-Jan-06 17:52N 51°17' E 004°20'0 0.0
2018-Jan-06 17:13N 51°17' E 004°20'0 0.0
2018-Jan-06 16:52N 51°17' E 004°20'0 0.0
2018-Jan-06 16:22N 51°17' E 004°20'0 0.0
2018-Jan-06 15:49N 51°17' E 004°20'0 0.0
2018-Jan-06 15:22N 51°17' E 004°20'0 0.0
2018-Jan-06 14:55N 51°17' E 004°20'0 0.0
2018-Jan-06 14:28N 51°17' E 004°20'0 0.0
2018-Jan-06 13:55N 51°17' E 004°20'0 0.0
2018-Jan-06 13:19N 51°17' E 004°20'0 0.0
2018-Jan-06 12:58N 51°17' E 004°20'0 0.0
2018-Jan-06 12:28N 51°17' E 004°20'0 0.0
2018-Jan-06 11:58N 51°17' E 004°20'0 0.0
2018-Jan-06 11:25N 51°17' E 004°20'0 0.0
2018-Jan-06 10:58N 51°17' E 004°20'0 0.0
2018-Jan-06 10:22N 51°17' E 004°20'0 0.0
2018-Jan-06 09:49N 51°17' E 004°20'0 0.0
2018-Jan-06 09:25N 51°17' E 004°20'0 0.0
2018-Jan-06 08:58N 51°17' E 004°20'0 0.0
2018-Jan-06 08:10N 51°17' E 004°20'0 0.0
2018-Jan-06 07:55N 51°17' E 004°20'0 0.0
2018-Jan-06 06:46N 51°17' E 004°20'0 0.0
2018-Jan-06 06:28N 51°17' E 004°20'0 0.0
2018-Jan-06 05:58N 51°17' E 004°20'0 0.0
2018-Jan-06 05:28N 51°17' E 004°20'0 0.0
2018-Jan-06 04:49N 51°17' E 004°20'0 0.0
2018-Jan-06 04:22N 51°17' E 004°20'0 0.0
2018-Jan-06 03:55N 51°17' E 004°20'0 0.0
2018-Jan-06 03:13N 51°17' E 004°20'0 0.0
2018-Jan-06 02:07N 51°17' E 004°20'0 0.0
2018-Jan-06 01:37N 51°17' E 004°20'0 0.0
2018-Jan-06 01:28N 51°17' E 004°20'0 0.0
2018-Jan-06 00:55N 51°17' E 004°20'0 0.0
2018-Jan-06 00:28N 51°17' E 004°20'0 0.0
2018-Jan-05 23:31N 51°17' E 004°20'0 0.0
2018-Jan-05 23:25N 51°17' E 004°20'0 0.0
2018-Jan-05 22:49N 51°17' E 004°20'0 0.0
2018-Jan-05 22:25N 51°17' E 004°20'0 0.0
2018-Jan-05 21:25N 51°17' E 004°20'0 0.0
2018-Jan-05 20:40N 51°17' E 004°20'0 0.0
2018-Jan-05 20:25N 51°17' E 004°20'0 0.0
2018-Jan-05 19:49N 51°17' E 004°20'0 0.0
2018-Jan-05 19:28N 51°17' E 004°20'0 0.0
2018-Jan-05 18:55N 51°17' E 004°20'0 0.0
2018-Jan-05 18:28N 51°17' E 004°20'0 0.0
2018-Jan-05 17:43N 51°17' E 004°20'0 0.0
2018-Jan-05 17:22N 51°17' E 004°20'0 0.0
2018-Jan-05 16:58N 51°17' E 004°20'0 0.0
2018-Jan-05 16:19N 51°17' E 004°20'0 0.0
2018-Jan-05 15:58N 51°17' E 004°20'0 0.0
2018-Jan-05 15:28N 51°17' E 004°20'0 0.0
2018-Jan-05 14:55N 51°17' E 004°20'0 0.0
2018-Jan-05 14:22N 51°17' E 004°20'0 0.0
2018-Jan-05 13:55N 51°17' E 004°20'0 0.0
2018-Jan-05 13:25N 51°17' E 004°20'0 0.0
2018-Jan-05 12:59N 51°17' E 004°20'2 3.5
2018-Jan-05 12:30N 51°19' E 004°19'2 4.3
2018-Jan-05 11:59N 51°21' E 004°17'0 0.0
2018-Jan-05 11:31N 51°21' E 004°17'0 0.0
2018-Jan-05 11:01N 51°21' E 004°17'0 0.0
2018-Jan-05 10:31N 51°21' E 004°17'0 0.9
2018-Jan-05 10:01N 51°21' E 004°16'3 5.5
2018-Jan-05 09:31N 51°23' E 004°13'4 7.2
2018-Jan-05 09:01N 51°22' E 004°07'4 8.2
2018-Jan-05 08:30N 51°25' E 004°02'3 6.2
2018-Jan-05 08:00N 51°24' E 003°57'5 9.4
2018-Jan-05 07:30N 51°21' E 003°51'5 9.5
2018-Jan-05 07:00N 51°22' E 003°44'5 9.6
2018-Jan-05 06:31N 51°26' E 003°40'4 7.7
2018-Jan-05 06:01N 51°26' E 003°34'4 8.9
2018-Jan-05 05:31N 51°25' E 003°27'713.2
2018-Jan-05 05:00N 51°24' E 003°16'714.3
2018-Jan-05 04:30N 51°24' E 003°05'714.5
2018-Jan-05 04:00N 51°25' E 002°53'612.3
2018-Jan-05 03:30N 51°24' E 002°43'5 8.9
2018-Jan-05 02:59N 51°27' E 002°38'0 0.0
2018-Jan-04 12:40N 51°27' E 002°37'0 0.0
2018-Jan-04 02:10N 51°27' E 002°37'0 0.0
2018-Jan-04 01:13N 51°27' E 002°37'0 0.0
2018-Jan-03 19:31N 51°27' E 002°37'0 0.0
2018-Jan-03 16:16N 51°27' E 002°37'0 0.1
2018-Jan-03 15:49N 51°27' E 002°37'0 0.0
2018-Jan-03 15:25N 51°27' E 002°37'3 0.6
2018-Jan-03 09:56N 51°27' E 002°42'1 0.3
2018-Jan-03 08:19N 51°27' E 002°43'2 1.4
2018-Jan-03 06:39N 51°27' E 002°40'1 5.8
2018-Jan-03 06:30N 51°27' E 002°38'1 0.2
2018-Jan-03 02:54N 51°27' E 002°40'4 8.0
2018-Jan-03 02:25N 51°25' E 002°34'1 1.2
2018-Jan-03 01:59N 51°25' E 002°35'0 0.1
2018-Jan-02 23:02N 51°24' E 002°34'0 0.3
2018-Jan-02 22:53N 51°24' E 002°34'0 0.2
2018-Jan-02 22:23N 51°24' E 002°34'0 0.0
2018-Jan-02 15:59N 51°25' E 002°34'0 0.1
2018-Jan-02 15:17N 51°24' E 002°34'0 0.0
2018-Jan-02 14:59N 51°24' E 002°34'0 0.0
2018-Jan-02 14:26N 51°24' E 002°34'0 0.0
2018-Jan-02 13:59N 51°24' E 002°34'0 0.0
2018-Jan-02 13:26N 51°24' E 002°34'0 0.0
2018-Jan-02 12:59N 51°24' E 002°34'0 0.0
2018-Jan-02 12:29N 51°24' E 002°34'0 0.1
2018-Jan-02 11:59N 51°24' E 002°34'0 0.0
2018-Jan-02 11:29N 51°24' E 002°34'0 0.1
2018-Jan-02 10:59N 51°24' E 002°34'0 0.1
2018-Jan-02 10:23N 51°24' E 002°34'0 0.3
2018-Jan-02 09:59N 51°24' E 002°34'0 0.1
2018-Jan-02 09:29N 51°24' E 002°34'0 0.0
2018-Jan-02 08:26N 51°24' E 002°34'0 0.0
2018-Jan-02 07:59N 51°24' E 002°34'0 0.1
2018-Jan-02 07:29N 51°24' E 002°34'0 0.1
2018-Jan-02 06:53N 51°24' E 002°34'0 0.1
2018-Jan-02 06:29N 51°24' E 002°34'0 0.1
2018-Jan-02 05:59N 51°24' E 002°34'0 0.1
2018-Jan-02 05:29N 51°24' E 002°34'0 0.1
2018-Jan-02 04:29N 51°24' E 002°34'0 0.2
2018-Jan-02 03:59N 51°24' E 002°34'0 0.1
2018-Jan-02 03:29N 51°24' E 002°34'0 0.0
2018-Jan-02 02:56N 51°24' E 002°34'0 0.0
2018-Jan-02 02:26N 51°24' E 002°34'0 0.0
2018-Jan-02 01:59N 51°24' E 002°34'0 0.0
2018-Jan-02 01:29N 51°24' E 002°34'0 0.0
2018-Jan-02 00:59N 51°24' E 002°34'0 0.0
2018-Jan-02 00:29N 51°24' E 002°34'0 0.0
2018-Jan-01 23:59N 51°24' E 002°34'0 0.0
2018-Jan-01 23:29N 51°24' E 002°34'0 0.1
2018-Jan-01 22:59N 51°24' E 002°34'0 0.1
2018-Jan-01 22:29N 51°24' E 002°34'0 0.1
2018-Jan-01 21:59N 51°24' E 002°34'0 0.0
2018-Jan-01 21:29N 51°24' E 002°34'0 0.1
2018-Jan-01 20:56N 51°24' E 002°34'0 0.1
2018-Jan-01 20:26N 51°24' E 002°34'0 0.1
2018-Jan-01 19:59N 51°24' E 002°34'0 0.0
2018-Jan-01 19:29N 51°24' E 002°34'0 0.0
2018-Jan-01 18:56N 51°24' E 002°34'0 0.1
2018-Jan-01 18:29N 51°24' E 002°34'0 0.1
2018-Jan-01 17:59N 51°24' E 002°34'0 0.0
2018-Jan-01 17:29N 51°24' E 002°34'0 0.1
2018-Jan-01 14:59N 51°24' E 002°34'0 0.0
2018-Jan-01 14:29N 51°24' E 002°34'0 0.0
2018-Jan-01 13:59N 51°24' E 002°34'0 0.0
2018-Jan-01 13:29N 51°24' E 002°34'0 0.0
2018-Jan-01 12:59N 51°25' E 002°34'0 0.0
2018-Jan-01 11:59N 51°24' E 002°34'0 0.0
2018-Jan-01 11:29N 51°25' E 002°34'0 0.0
2018-Jan-01 10:59N 51°25' E 002°34'0 0.0
2018-Jan-01 10:29N 51°25' E 002°34'0 0.0
2018-Jan-01 09:59N 51°24' E 002°34'0 0.0
2018-Jan-01 09:29N 51°24' E 002°34'0 0.1
2018-Jan-01 08:29N 51°24' E 002°34'0 0.1
2018-Jan-01 07:59N 51°24' E 002°34'0 0.1
2018-Jan-01 07:20N 51°24' E 002°34'0 0.1
2018-Jan-01 06:59N 51°24' E 002°34'0 0.1
2018-Jan-01 05:59N 51°24' E 002°34'0 0.1
2018-Jan-01 05:29N 51°24' E 002°34'0 0.0
2018-Jan-01 04:59N 51°24' E 002°34'0 0.1
2018-Jan-01 03:59N 51°24' E 002°34'0 0.1
2018-Jan-01 03:29N 51°24' E 002°34'0 0.0
2018-Jan-01 02:59N 51°24' E 002°34'0 0.0
2018-Jan-01 02:23N 51°24' E 002°34'0 0.0
2018-Jan-01 01:59N 51°24' E 002°34'0 0.0
2018-Jan-01 01:29N 51°24' E 002°34'0 0.0
2018-Jan-01 00:29N 51°24' E 002°34'0 0.0
2017-Dec-31 20:59N 51°24' E 002°34'0 0.0
2017-Dec-31 19:53N 51°24' E 002°34'0 0.1
2017-Dec-31 19:29N 51°24' E 002°34'0 0.1
2017-Dec-31 18:53N 51°24' E 002°34'0 0.0
2017-Dec-31 18:26N 51°24' E 002°34'0 0.1
2017-Dec-31 17:59N 51°24' E 002°34'0 0.1
2017-Dec-31 17:29N 51°24' E 002°34'0 0.0
2017-Dec-31 16:59N 51°24' E 002°34'0 0.0
2017-Dec-31 16:29N 51°24' E 002°34'0 0.0
2017-Dec-31 15:59N 51°24' E 002°34'0 0.1
2017-Dec-31 15:26N 51°24' E 002°34'0 0.0
2017-Dec-31 14:56N 51°24' E 002°34'1 1.4
2017-Dec-31 14:25N 51°24' E 002°35'5 7.3
2017-Dec-31 13:47N 51°23' E 002°43'4 8.6
2017-Dec-31 13:17N 51°22' E 002°49'311.6
2017-Dec-31 13:00N 51°22' E 002°54'611.4
2017-Dec-31 12:30N 51°25' E 003°02'611.5
2017-Dec-31 12:00N 51°24' E 003°12'611.4
2017-Dec-31 11:30N 51°24' E 003°21'611.0
2017-Dec-31 11:00N 51°25' E 003°30'5 9.2
2017-Dec-31 10:30N 51°26' E 003°37'3 5.8
2017-Dec-31 10:00N 51°26' E 003°42'511.1
2017-Dec-31 09:30N 51°22' E 003°47'510.1
2017-Dec-31 09:00N 51°22' E 003°55'510.3
2017-Dec-31 08:30N 51°26' E 003°60'510.7
2017-Dec-31 08:00N 51°22' E 004°05'5 9.9
2017-Dec-31 07:30N 51°23' E 004°13'4 7.1
2017-Dec-31 07:00N 51°21' E 004°17'0 0.1
2017-Dec-31 06:30N 51°21' E 004°17'0 0.3
2017-Dec-31 06:00N 51°21' E 004°18'1 1.3
2017-Dec-31 05:30N 51°21' E 004°18'  
Track history (hours):
 
Tides and Currents Weather Stations Pressure Air Temp Water Temp Dewpoint Dewpoint Depression Visibility Wind Speed Wind Dir Waves Ship Positions

High Challenge

Last reported at 2018-Jan-09 10:50 UTC. Time now 2018-Jan-19 07:17 UTC.
Position N 49°49' W 003°25'.
Warning: this ship's position is 9 days out of date.

Length 183 m; draft 10.8 m.

Type: Ship. MMSI: 636017622.

Date/timePositionNaut miles runAvg speedWind from/ knotsBaromVisibWave heightAir tempDewpointWater temp
2018-Jan-09 10:50N 49°49' W 003°25'513.5
2018-Jan-09 10:29N 49°51' W 003°19'913.8
2018-Jan-09 09:49N 49°56' W 003°07'414.2
2018-Jan-09 09:30N 49°58' W 003°01'714.7
2018-Jan-09 09:00N 50°01' W 002°50'815.2
2018-Jan-09 08:30N 50°03' W 002°39'4316.4
2018-Jan-09 05:54N 50°14' W 001°34'616.0
2018-Jan-09 05:30N 50°17' W 001°25'815.6
2018-Jan-09 05:00N 50°19' W 001°13'1214.8
2018-Jan-09 04:12N 50°22' W 000°55'1113.5
2018-Jan-09 03:24N 50°25' W 000°39'1113.0
2018-Jan-09 02:32N 50°29' W 000°22'013.2
2018-Jan-09 02:30N 50°29' W 000°22'713.0
2018-Jan-09 02:00N 50°30' W 000°12'613.1
2018-Jan-09 01:30N 50°32' W 000°02'713.1
2018-Jan-09 01:00N 50°34' E 000°08'713.3
2018-Jan-09 00:30N 50°36' E 000°18'713.9
2018-Jan-09 00:00N 50°38' E 000°29'714.5
2018-Jan-08 23:30N 50°41' E 000°39'815.2
2018-Jan-08 23:00N 50°45' E 000°49'815.7
2018-Jan-08 22:30N 50°50' E 000°59'815.8
2018-Jan-08 22:00N 50°55' E 001°09'3366.7
2018-Jan-08 21:30N 51°17' E 001°47'1835.4
2018-Jan-08 21:00N 51°04' E 001°27'713.4
2018-Jan-08 20:30N 51°08' E 001°36'612.7
2018-Jan-08 20:00N 51°12' E 001°44'612.4
2018-Jan-08 19:30N 51°18' E 001°48'612.0
2018-Jan-08 19:00N 51°23' E 001°52'611.3
2018-Jan-08 18:30N 51°26' E 001°60'713.3
2018-Jan-08 18:00N 51°22' E 002°09'612.4
2018-Jan-08 17:30N 51°20' E 002°18'612.0
2018-Jan-08 17:00N 51°22' E 002°27'612.0
2018-Jan-08 16:30N 51°22' E 002°37'610.7
2018-Jan-08 16:00N 51°22' E 002°46'510.0
2018-Jan-08 15:30N 51°22' E 002°53'612.8
2018-Jan-08 15:00N 51°24' E 003°03'612.8
2018-Jan-08 14:30N 51°24' E 003°13'612.6
2018-Jan-08 14:00N 51°25' E 003°24'611.2
2018-Jan-08 13:30N 51°26' E 003°33'510.1
2018-Jan-08 13:00N 51°26' E 003°40'612.1
2018-Jan-08 12:30N 51°22' E 003°46'713.4
2018-Jan-08 12:00N 51°23' E 003°57'3 6.8
2018-Jan-08 11:30N 51°24' E 004°02'510.7
2018-Jan-08 11:00N 51°24' E 004°11'5 9.3
2018-Jan-08 10:30N 51°21' E 004°16'1 1.2
2018-Jan-08 10:00N 51°21' E 004°17'0 0.0
2018-Jan-08 09:30N 51°21' E 004°17'0 0.6
2018-Jan-08 09:00N 51°21' E 004°18'2 3.3
2018-Jan-08 08:30N 51°19' E 004°19'2 4.0
2018-Jan-08 07:58N 51°17' E 004°20'0 0.1
2018-Jan-08 05:43N 51°17' E 004°20'0 0.0
2018-Jan-08 05:22N 51°17' E 004°20'0 0.0
2018-Jan-08 04:58N 51°17' E 004°20'0 0.0
2018-Jan-08 04:25N 51°17' E 004°20'0 0.0
2018-Jan-08 03:55N 51°17' E 004°20'0 0.0
2018-Jan-08 03:28N 51°17' E 004°20'0 0.0
2018-Jan-08 02:58N 51°17' E 004°20'0 0.0
2018-Jan-08 02:25N 51°17' E 004°20'0 0.0
2018-Jan-08 01:58N 51°17' E 004°20'0 0.0
2018-Jan-08 01:28N 51°17' E 004°20'0 0.0
2018-Jan-08 00:58N 51°17' E 004°20'0 0.0
2018-Jan-08 00:22N 51°17' E 004°20'0 0.0
2018-Jan-07 23:55N 51°17' E 004°20'0 0.0
2018-Jan-07 23:19N 51°17' E 004°20'0 0.0
2018-Jan-07 22:55N 51°17' E 004°20'0 0.0
2018-Jan-07 22:28N 51°17' E 004°20'0 0.0
2018-Jan-07 21:55N 51°17' E 004°20'0 0.0
2018-Jan-07 21:22N 51°17' E 004°20'0 0.0
2018-Jan-07 20:19N 51°17' E 004°20'0 0.0
2018-Jan-07 19:49N 51°17' E 004°20'0 0.0
2018-Jan-07 19:13N 51°17' E 004°20'0 0.0
2018-Jan-07 18:58N 51°17' E 004°20'0 0.0
2018-Jan-07 18:25N 51°17' E 004°20'0 0.0
2018-Jan-07 17:55N 51°17' E 004°20'0 0.0
2018-Jan-07 17:13N 51°17' E 004°20'0 0.0
2018-Jan-07 16:13N 51°17' E 004°20'0 0.0
2018-Jan-07 15:49N 51°17' E 004°20'0 0.0
2018-Jan-07 15:19N 51°17' E 004°20'0 0.0
2018-Jan-07 14:49N 51°17' E 004°20'0 0.0
2018-Jan-07 14:13N 51°17' E 004°20'0 0.0
2018-Jan-07 13:43N 51°17' E 004°20'0 0.0
2018-Jan-07 13:28N 51°17' E 004°20'0 0.0
2018-Jan-07 12:16N 51°17' E 004°20'0 0.0
2018-Jan-07 11:52N 51°17' E 004°20'0 0.0
2018-Jan-07 11:28N 51°17' E 004°20'0 0.0
2018-Jan-07 10:52N 51°17' E 004°20'0 0.0
2018-Jan-07 10:25N 51°17' E 004°20'0 0.0
2018-Jan-07 09:58N 51°17' E 004°20'0 0.0
2018-Jan-07 08:40N 51°17' E 004°20'0 0.0
2018-Jan-07 08:28N 51°17' E 004°20'0 0.0
2018-Jan-07 07:55N 51°17' E 004°20'0 0.0
2018-Jan-07 07:19N 51°17' E 004°20'0 0.0
2018-Jan-07 06:58N 51°17' E 004°20'0 0.0
2018-Jan-07 06:19N 51°17' E 004°20'0 0.0
2018-Jan-07 05:58N 51°17' E 004°20'0 0.0
2018-Jan-07 05:28N 51°17' E 004°20'0 0.0
2018-Jan-07 04:49N 51°17' E 004°20'0 0.0
2018-Jan-07 04:28N 51°17' E 004°20'0 0.0
2018-Jan-07 03:55N 51°17' E 004°20'0 0.0
2018-Jan-07 03:28N 51°17' E 004°20'0 0.0
2018-Jan-07 02:52N 51°17' E 004°20'0 0.0
2018-Jan-07 02:25N 51°17' E 004°20'0 0.0
2018-Jan-07 01:55N 51°17' E 004°20'0 0.0
2018-Jan-07 01:28N 51°17' E 004°20'0 0.0
2018-Jan-07 00:28N 51°17' E 004°20'0 0.0
2018-Jan-06 23:58N 51°17' E 004°20'0 0.0
2018-Jan-06 23:16N 51°17' E 004°20'0 0.0
2018-Jan-06 22:49N 51°17' E 004°20'0 0.0
2018-Jan-06 22:28N 51°17' E 004°20'0 0.0
2018-Jan-06 21:55N 51°17' E 004°20'0 0.0
2018-Jan-06 21:28N 51°17' E 004°20'0 0.0
2018-Jan-06 20:58N 51°17' E 004°20'0 0.0
2018-Jan-06 20:28N 51°17' E 004°20'0 0.0
2018-Jan-06 19:58N 51°17' E 004°20'0 0.0
2018-Jan-06 19:25N 51°17' E 004°20'0 0.0
2018-Jan-06 18:55N 51°17' E 004°20'0 0.0
2018-Jan-06 18:28N 51°17' E 004°20'0 0.0
2018-Jan-06 17:52N 51°17' E 004°20'0 0.0
2018-Jan-06 17:13N 51°17' E 004°20'0 0.0
2018-Jan-06 16:52N 51°17' E 004°20'0 0.0
2018-Jan-06 16:22N 51°17' E 004°20'0 0.0
2018-Jan-06 15:49N 51°17' E 004°20'0 0.0
2018-Jan-06 15:22N 51°17' E 004°20'0 0.0
2018-Jan-06 14:55N 51°17' E 004°20'0 0.0
2018-Jan-06 14:28N 51°17' E 004°20'0 0.0
2018-Jan-06 13:55N 51°17' E 004°20'0 0.0
2018-Jan-06 13:19N 51°17' E 004°20'0 0.0
2018-Jan-06 12:58N 51°17' E 004°20'0 0.0
2018-Jan-06 12:28N 51°17' E 004°20'0 0.0
2018-Jan-06 11:58N 51°17' E 004°20'0 0.0
2018-Jan-06 11:25N 51°17' E 004°20'0 0.0
2018-Jan-06 10:58N 51°17' E 004°20'0 0.0
2018-Jan-06 10:22N 51°17' E 004°20'0 0.0
2018-Jan-06 09:49N 51°17' E 004°20'0 0.0
2018-Jan-06 09:25N 51°17' E 004°20'0 0.0
2018-Jan-06 08:58N 51°17' E 004°20'0 0.0
2018-Jan-06 08:10N 51°17' E 004°20'0 0.0
2018-Jan-06 07:55N 51°17' E 004°20'0 0.0
2018-Jan-06 06:46N 51°17' E 004°20'0 0.0
2018-Jan-06 06:28N 51°17' E 004°20'0 0.0
2018-Jan-06 05:58N 51°17' E 004°20'0 0.0
2018-Jan-06 05:28N 51°17' E 004°20'0 0.0
2018-Jan-06 04:49N 51°17' E 004°20'0 0.0
2018-Jan-06 04:22N 51°17' E 004°20'0 0.0
2018-Jan-06 03:55N 51°17' E 004°20'0 0.0
2018-Jan-06 03:13N 51°17' E 004°20'0 0.0
2018-Jan-06 02:07N 51°17' E 004°20'0 0.0
2018-Jan-06 01:37N 51°17' E 004°20'0 0.0
2018-Jan-06 01:28N 51°17' E 004°20'0 0.0
2018-Jan-06 00:55N 51°17' E 004°20'0 0.0
2018-Jan-06 00:28N 51°17' E 004°20'0 0.0
2018-Jan-05 23:31N 51°17' E 004°20'0 0.0
2018-Jan-05 23:25N 51°17' E 004°20'0 0.0
2018-Jan-05 22:49N 51°17' E 004°20'0 0.0
2018-Jan-05 22:25N 51°17' E 004°20'0 0.0
2018-Jan-05 21:25N 51°17' E 004°20'0 0.0
2018-Jan-05 20:40N 51°17' E 004°20'0 0.0
2018-Jan-05 20:25N 51°17' E 004°20'0 0.0
2018-Jan-05 19:49N 51°17' E 004°20'0 0.0
2018-Jan-05 19:28N 51°17' E 004°20'0 0.0
2018-Jan-05 18:55N 51°17' E 004°20'0 0.0
2018-Jan-05 18:28N 51°17' E 004°20'0 0.0
2018-Jan-05 17:43N 51°17' E 004°20'0 0.0
2018-Jan-05 17:22N 51°17' E 004°20'0 0.0
2018-Jan-05 16:58N 51°17' E 004°20'0 0.0
2018-Jan-05 16:19N 51°17' E 004°20'0 0.0
2018-Jan-05 15:58N 51°17' E 004°20'0 0.0
2018-Jan-05 15:28N 51°17' E 004°20'0 0.0
2018-Jan-05 14:55N 51°17' E 004°20'0 0.0
2018-Jan-05 14:22N 51°17' E 004°20'0 0.0
2018-Jan-05 13:55N 51°17' E 004°20'0 0.0
2018-Jan-05 13:25N 51°17' E 004°20'0 0.0
2018-Jan-05 12:59N 51°17' E 004°20'2 3.5
2018-Jan-05 12:30N 51°19' E 004°19'2 4.3
2018-Jan-05 11:59N 51°21' E 004°17'0 0.0
2018-Jan-05 11:31N 51°21' E 004°17'0 0.0
2018-Jan-05 11:01N 51°21' E 004°17'0 0.0
2018-Jan-05 10:31N 51°21' E 004°17'0 0.9
2018-Jan-05 10:01N 51°21' E 004°16'3 5.5
2018-Jan-05 09:31N 51°23' E 004°13'4 7.2
2018-Jan-05 09:01N 51°22' E 004°07'4 8.2
2018-Jan-05 08:30N 51°25' E 004°02'3 6.2
2018-Jan-05 08:00N 51°24' E 003°57'5 9.4
2018-Jan-05 07:30N 51°21' E 003°51'5 9.5
2018-Jan-05 07:00N 51°22' E 003°44'5 9.6
2018-Jan-05 06:31N 51°26' E 003°40'4 7.7
2018-Jan-05 06:01N 51°26' E 003°34'4 8.9
2018-Jan-05 05:31N 51°25' E 003°27'713.2
2018-Jan-05 05:00N 51°24' E 003°16'714.3
2018-Jan-05 04:30N 51°24' E 003°05'714.5
2018-Jan-05 04:00N 51°25' E 002°53'612.3
2018-Jan-05 03:30N 51°24' E 002°43'5 8.9
2018-Jan-05 02:59N 51°27' E 002°38'0 0.0
2018-Jan-04 12:40N 51°27' E 002°37'0 0.0
2018-Jan-04 02:10N 51°27' E 002°37'0 0.0
2018-Jan-04 01:13N 51°27' E 002°37'0 0.0
2018-Jan-03 19:31N 51°27' E 002°37'0 0.0
2018-Jan-03 16:16N 51°27' E 002°37'0 0.1
2018-Jan-03 15:49N 51°27' E 002°37'0 0.0
2018-Jan-03 15:25N 51°27' E 002°37'3 0.6
2018-Jan-03 09:56N 51°27' E 002°42'1 0.3
2018-Jan-03 08:19N 51°27' E 002°43'2 1.4
2018-Jan-03 06:39N 51°27' E 002°40'1 5.8
2018-Jan-03 06:30N 51°27' E 002°38'1 0.2
2018-Jan-03 02:54N 51°27' E 002°40'4 8.0
2018-Jan-03 02:25N 51°25' E 002°34'1 1.2
2018-Jan-03 01:59N 51°25' E 002°35'0 0.1
2018-Jan-02 23:02N 51°24' E 002°34'0 0.3
2018-Jan-02 22:53N 51°24' E 002°34'0 0.2
2018-Jan-02 22:23N 51°24' E 002°34'0 0.0
2018-Jan-02 15:59N 51°25' E 002°34'0 0.1
2018-Jan-02 15:17N 51°24' E 002°34'0 0.0
2018-Jan-02 14:59N 51°24' E 002°34'0 0.0
2018-Jan-02 14:26N 51°24' E 002°34'0 0.0
2018-Jan-02 13:59N 51°24' E 002°34'0 0.0
2018-Jan-02 13:26N 51°24' E 002°34'0 0.0
2018-Jan-02 12:59N 51°24' E 002°34'0 0.0
2018-Jan-02 12:29N 51°24' E 002°34'0 0.1
2018-Jan-02 11:59N 51°24' E 002°34'0 0.0
2018-Jan-02 11:29N 51°24' E 002°34'0 0.1
2018-Jan-02 10:59N 51°24' E 002°34'0 0.1
2018-Jan-02 10:23N 51°24' E 002°34'0 0.3
2018-Jan-02 09:59N 51°24' E 002°34'0 0.1
2018-Jan-02 09:29N 51°24' E 002°34'0 0.0
2018-Jan-02 08:26N 51°24' E 002°34'0 0.0
2018-Jan-02 07:59N 51°24' E 002°34'0 0.1
2018-Jan-02 07:29N 51°24' E 002°34'0 0.1
2018-Jan-02 06:53N 51°24' E 002°34'0 0.1
2018-Jan-02 06:29N 51°24' E 002°34'0 0.1
2018-Jan-02 05:59N 51°24' E 002°34'0 0.1
2018-Jan-02 05:29N 51°24' E 002°34'0 0.1
2018-Jan-02 04:29N 51°24' E 002°34'0 0.2
2018-Jan-02 03:59N 51°24' E 002°34'0 0.1
2018-Jan-02 03:29N 51°24' E 002°34'0 0.0
2018-Jan-02 02:56N 51°24' E 002°34'0 0.0
2018-Jan-02 02:26N 51°24' E 002°34'0 0.0
2018-Jan-02 01:59N 51°24' E 002°34'0 0.0
2018-Jan-02 01:29N 51°24' E 002°34'0 0.0
2018-Jan-02 00:59N 51°24' E 002°34'0 0.0
2018-Jan-02 00:29N 51°24' E 002°34'0 0.0
2018-Jan-01 23:59N 51°24' E 002°34'0 0.0
2018-Jan-01 23:29N 51°24' E 002°34'0 0.1
2018-Jan-01 22:59N 51°24' E 002°34'0 0.1
2018-Jan-01 22:29N 51°24' E 002°34'0 0.1
2018-Jan-01 21:59N 51°24' E 002°34'0 0.0
2018-Jan-01 21:29N 51°24' E 002°34'0 0.1
2018-Jan-01 20:56N 51°24' E 002°34'0 0.1
2018-Jan-01 20:26N 51°24' E 002°34'0 0.1
2018-Jan-01 19:59N 51°24' E 002°34'0 0.0
2018-Jan-01 19:29N 51°24' E 002°34'0 0.0
2018-Jan-01 18:56N 51°24' E 002°34'0 0.1
2018-Jan-01 18:29N 51°24' E 002°34'0 0.1
2018-Jan-01 17:59N 51°24' E 002°34'0 0.0
2018-Jan-01 17:29N 51°24' E 002°34'0 0.1
2018-Jan-01 14:59N 51°24' E 002°34'0 0.0
2018-Jan-01 14:29N 51°24' E 002°34'0 0.0
2018-Jan-01 13:59N 51°24' E 002°34'0 0.0
2018-Jan-01 13:29N 51°24' E 002°34'0 0.0
2018-Jan-01 12:59N 51°25' E 002°34'0 0.0
2018-Jan-01 11:59N 51°24' E 002°34'0 0.0
2018-Jan-01 11:29N 51°25' E 002°34'0 0.0
2018-Jan-01 10:59N 51°25' E 002°34'0 0.0
2018-Jan-01 10:29N 51°25' E 002°34'0 0.0
2018-Jan-01 09:59N 51°24' E 002°34'0 0.0
2018-Jan-01 09:29N 51°24' E 002°34'0 0.1
2018-Jan-01 08:29N 51°24' E 002°34'0 0.1
2018-Jan-01 07:59N 51°24' E 002°34'0 0.1
2018-Jan-01 07:20N 51°24' E 002°34'0 0.1
2018-Jan-01 06:59N 51°24' E 002°34'0 0.1
2018-Jan-01 05:59N 51°24' E 002°34'0 0.1
2018-Jan-01 05:29N 51°24' E 002°34'0 0.0
2018-Jan-01 04:59N 51°24' E 002°34'0 0.1
2018-Jan-01 03:59N 51°24' E 002°34'0 0.1
2018-Jan-01 03:29N 51°24' E 002°34'0 0.0
2018-Jan-01 02:59N 51°24' E 002°34'0 0.0
2018-Jan-01 02:23N 51°24' E 002°34'0 0.0
2018-Jan-01 01:59N 51°24' E 002°34'0 0.0
2018-Jan-01 01:29N 51°24' E 002°34'0 0.0
2018-Jan-01 00:29N 51°24' E 002°34'0 0.0
2017-Dec-31 20:59N 51°24' E 002°34'0 0.0
2017-Dec-31 19:53N 51°24' E 002°34'0 0.1
2017-Dec-31 19:29N 51°24' E 002°34'0 0.1
2017-Dec-31 18:53N 51°24' E 002°34'0 0.0
2017-Dec-31 18:26N 51°24' E 002°34'0 0.1
2017-Dec-31 17:59N 51°24' E 002°34'0 0.1
2017-Dec-31 17:29N 51°24' E 002°34'0 0.0
2017-Dec-31 16:59N 51°24' E 002°34'0 0.0
2017-Dec-31 16:29N 51°24' E 002°34'0 0.0
2017-Dec-31 15:59N 51°24' E 002°34'0 0.1
2017-Dec-31 15:26N 51°24' E 002°34'0 0.0
2017-Dec-31 14:56N 51°24' E 002°34'1 1.4
2017-Dec-31 14:25N 51°24' E 002°35'5 7.3
2017-Dec-31 13:47N 51°23' E 002°43'4 8.6
2017-Dec-31 13:17N 51°22' E 002°49'311.6
2017-Dec-31 13:00N 51°22' E 002°54'611.4
2017-Dec-31 12:30N 51°25' E 003°02'611.5
2017-Dec-31 12:00N 51°24' E 003°12'611.4
2017-Dec-31 11:30N 51°24' E 003°21'611.0
2017-Dec-31 11:00N 51°25' E 003°30'5 9.2
2017-Dec-31 10:30N 51°26' E 003°37'3 5.8
2017-Dec-31 10:00N 51°26' E 003°42'511.1
2017-Dec-31 09:30N 51°22' E 003°47'510.1
2017-Dec-31 09:00N 51°22' E 003°55'510.3
2017-Dec-31 08:30N 51°26' E 003°60'510.7
2017-Dec-31 08:00N 51°22' E 004°05'5 9.9
2017-Dec-31 07:30N 51°23' E 004°13'4 7.1
2017-Dec-31 07:00N 51°21' E 004°17'0 0.1
2017-Dec-31 06:30N 51°21' E 004°17'0 0.3
2017-Dec-31 06:00N 51°21' E 004°18'1 1.3
2017-Dec-31 05:30N 51°21' E 004°18'  

Dump ship's entire track history